sensor_id;sensor_type;location;lat;lon;timestamp;noise_LAeq;noise_LA_min;noise_LA_max;noise_LA01;noise_LA95
74470;Laerm;62918;55.706;37.816;2023-04-03T00:00:29;54.88;44.39;70.27;;
74470;Laerm;62918;55.706;37.816;2023-04-03T00:01:01;53.05;43.35;65.80;;
74470;Laerm;62918;55.706;37.816;2023-04-03T00:01:35;46.79;43.06;54.56;;
74470;Laerm;62918;55.706;37.816;2023-04-03T00:02:10;51.73;43.10;59.00;;
74470;Laerm;62918;55.706;37.816;2023-04-03T00:02:41;57.07;50.26;63.09;;
74470;Laerm;62918;55.706;37.816;2023-04-03T00:03:11;58.69;49.93;66.50;;
74470;Laerm;62918;55.706;37.816;2023-04-03T00:03:42;63.32;55.44;72.70;;
74470;Laerm;62918;55.706;37.816;2023-04-03T00:04:13;51.67;47.30;59.07;;
74470;Laerm;62918;55.706;37.816;2023-04-03T00:04:43;47.05;44.30;50.40;;
74470;Laerm;62918;55.706;37.816;2023-04-03T00:05:15;58.57;45.19;68.44;;
74470;Laerm;62918;55.706;37.816;2023-04-03T00:05:46;53.98;46.32;60.27;;
74470;Laerm;62918;55.706;37.816;2023-04-03T00:06:16;55.09;47.10;61.71;;
74470;Laerm;62918;55.706;37.816;2023-04-03T00:06:50;54.81;46.86;62.02;;
74470;Laerm;62918;55.706;37.816;2023-04-03T00:07:21;58.35;50.63;64.26;;
74470;Laerm;62918;55.706;37.816;2023-04-03T00:07:52;59.22;53.69;64.75;;
74470;Laerm;62918;55.706;37.816;2023-04-03T00:08:22;59.81;49.69;67.34;;
74470;Laerm;62918;55.706;37.816;2023-04-03T00:08:56;53.11;47.70;59.31;;
74470;Laerm;62918;55.706;37.816;2023-04-03T00:09:27;55.78;48.07;62.87;;
74470;Laerm;62918;55.706;37.816;2023-04-03T00:10:05;60.31;49.84;68.87;;
74470;Laerm;62918;55.706;37.816;2023-04-03T00:10:59;58.97;47.20;79.45;;
74470;Laerm;62918;55.706;37.816;2023-04-03T00:11:30;58.88;48.54;65.34;;
74470;Laerm;62918;55.706;37.816;2023-04-03T00:12:00;62.97;55.69;68.59;;
74470;Laerm;62918;55.706;37.816;2023-04-03T00:12:31;59.81;51.94;66.06;;
74470;Laerm;62918;55.706;37.816;2023-04-03T00:13:03;61.89;58.10;70.14;;
74470;Laerm;62918;55.706;37.816;2023-04-03T00:13:34;57.56;49.07;63.54;;
74470;Laerm;62918;55.706;37.816;2023-04-03T00:14:04;61.37;49.64;68.75;;
74470;Laerm;62918;55.706;37.816;2023-04-03T00:14:38;54.18;49.26;57.99;;
74470;Laerm;62918;55.706;37.816;2023-04-03T00:15:09;54.05;49.32;58.56;;
74470;Laerm;62918;55.706;37.816;2023-04-03T00:15:40;56.54;50.11;62.73;;
74470;Laerm;62918;55.706;37.816;2023-04-03T00:16:12;53.92;49.03;59.98;;
74470;Laerm;62918;55.706;37.816;2023-04-03T00:16:48;58.37;49.33;66.56;;
74470;Laerm;62918;55.706;37.816;2023-04-03T00:17:19;62.15;53.32;66.38;;
74470;Laerm;62918;55.706;37.816;2023-04-03T00:17:52;56.00;52.81;61.13;;
74470;Laerm;62918;55.706;37.816;2023-04-03T00:18:23;61.06;53.90;68.89;;
74470;Laerm;62918;55.706;37.816;2023-04-03T00:18:54;53.79;44.91;63.42;;
74470;Laerm;62918;55.706;37.816;2023-04-03T00:19:24;51.22;44.40;57.87;;
74470;Laerm;62918;55.706;37.816;2023-04-03T00:19:55;55.32;46.22;62.74;;
74470;Laerm;62918;55.706;37.816;2023-04-03T00:20:25;49.43;44.50;57.17;;
74470;Laerm;62918;55.706;37.816;2023-04-03T00:20:57;58.41;45.35;69.17;;
74470;Laerm;62918;55.706;37.816;2023-04-03T00:21:28;56.98;45.98;64.78;;
74470;Laerm;62918;55.706;37.816;2023-04-03T00:21:58;56.85;45.54;63.45;;
74470;Laerm;62918;55.706;37.816;2023-04-03T00:22:31;48.02;45.50;51.99;;
74470;Laerm;62918;55.706;37.816;2023-04-03T00:23:05;52.46;47.28;68.80;;
74470;Laerm;62918;55.706;37.816;2023-04-03T00:23:38;58.12;50.71;72.41;;
74470;Laerm;62918;55.706;37.816;2023-04-03T00:24:18;62.28;54.20;68.15;;
74470;Laerm;62918;55.706;37.816;2023-04-03T00:24:49;65.52;61.92;68.62;;
74470;Laerm;62918;55.706;37.816;2023-04-03T00:25:20;62.26;59.00;65.17;;
74470;Laerm;62918;55.706;37.816;2023-04-03T00:25:52;61.75;56.00;65.76;;
74470;Laerm;62918;55.706;37.816;2023-04-03T00:26:22;55.79;52.65;61.36;;
74470;Laerm;62918;55.706;37.816;2023-04-03T00:26:53;56.20;47.67;64.36;;
74470;Laerm;62918;55.706;37.816;2023-04-03T00:27:27;50.10;47.38;57.76;;
74470;Laerm;62918;55.706;37.816;2023-04-03T00:27:57;52.55;48.36;57.68;;
74470;Laerm;62918;55.706;37.816;2023-04-03T00:28:28;50.12;47.69;57.27;;
74470;Laerm;62918;55.706;37.816;2023-04-03T00:28:58;55.19;47.82;62.35;;
74470;Laerm;62918;55.706;37.816;2023-04-03T00:29:29;54.67;48.87;61.28;;
74470;Laerm;62918;55.706;37.816;2023-04-03T00:30:00;57.49;47.65;66.06;;
74470;Laerm;62918;55.706;37.816;2023-04-03T00:30:31;58.39;46.82;67.30;;
74470;Laerm;62918;55.706;37.816;2023-04-03T00:31:09;53.33;45.92;59.08;;
74470;Laerm;62918;55.706;37.816;2023-04-03T00:31:40;48.76;45.40;58.39;;
74470;Laerm;62918;55.706;37.816;2023-04-03T00:32:10;51.29;46.18;56.31;;
74470;Laerm;62918;55.706;37.816;2023-04-03T00:32:44;48.08;44.63;52.03;;
74470;Laerm;62918;55.706;37.816;2023-04-03T00:33:15;51.05;46.24;56.54;;
74470;Laerm;62918;55.706;37.816;2023-04-03T00:33:46;51.70;46.87;56.19;;
74470;Laerm;62918;55.706;37.816;2023-04-03T00:34:19;53.06;45.93;61.66;;
74470;Laerm;62918;55.706;37.816;2023-04-03T00:34:50;50.39;45.47;57.41;;
74470;Laerm;62918;55.706;37.816;2023-04-03T00:35:22;55.00;48.09;62.37;;
74470;Laerm;62918;55.706;37.816;2023-04-03T00:35:53;50.75;47.10;55.49;;
74470;Laerm;62918;55.706;37.816;2023-04-03T00:36:23;48.71;45.34;51.58;;
74470;Laerm;62918;55.706;37.816;2023-04-03T00:36:54;49.79;44.56;55.91;;
74470;Laerm;62918;55.706;37.816;2023-04-03T00:37:25;50.25;45.52;54.86;;
74470;Laerm;62918;55.706;37.816;2023-04-03T00:37:55;50.27;45.20;57.05;;
74470;Laerm;62918;55.706;37.816;2023-04-03T00:38:26;51.99;46.12;63.69;;
74470;Laerm;62918;55.706;37.816;2023-04-03T00:38:57;49.99;45.64;56.33;;
74470;Laerm;62918;55.706;37.816;2023-04-03T00:39:28;50.80;45.58;58.05;;
74470;Laerm;62918;55.706;37.816;2023-04-03T00:39:58;53.71;46.53;60.11;;
74470;Laerm;62918;55.706;37.816;2023-04-03T00:40:36;49.50;45.60;53.60;;
74470;Laerm;62918;55.706;37.816;2023-04-03T00:41:10;48.96;45.69;51.58;;
74470;Laerm;62918;55.706;37.816;2023-04-03T00:41:40;56.81;48.55;63.82;;
74470;Laerm;62918;55.706;37.816;2023-04-03T00:42:11;60.85;56.63;64.51;;
74470;Laerm;62918;55.706;37.816;2023-04-03T00:42:43;63.06;54.27;73.41;;
74470;Laerm;62918;55.706;37.816;2023-04-03T00:43:23;58.07;49.17;71.02;;
74470;Laerm;62918;55.706;37.816;2023-04-03T00:43:54;50.71;47.26;54.28;;
74470;Laerm;62918;55.706;37.816;2023-04-03T00:45:37;51.77;46.34;62.49;;
74470;Laerm;62918;55.706;37.816;2023-04-03T00:46:10;60.03;49.94;70.20;;
74470;Laerm;62918;55.706;37.816;2023-04-03T00:46:41;56.38;49.59;64.31;;
74470;Laerm;62918;55.706;37.816;2023-04-03T00:47:13;62.53;50.95;68.95;;
74470;Laerm;62918;55.706;37.816;2023-04-03T00:47:46;59.73;52.19;69.40;;
74470;Laerm;62918;55.706;37.816;2023-04-03T00:48:28;61.11;52.79;68.25;;
74470;Laerm;62918;55.706;37.816;2023-04-03T00:48:59;57.82;49.35;64.68;;
74470;Laerm;62918;55.706;37.816;2023-04-03T00:49:30;56.64;49.05;63.37;;
74470;Laerm;62918;55.706;37.816;2023-04-03T00:50:01;61.94;51.55;67.96;;
74470;Laerm;62918;55.706;37.816;2023-04-03T00:50:35;57.41;46.73;66.29;;
74470;Laerm;62918;55.706;37.816;2023-04-03T00:51:11;48.69;46.13;51.60;;
74470;Laerm;62918;55.706;37.816;2023-04-03T00:51:43;50.24;46.74;54.82;;
74470;Laerm;62918;55.706;37.816;2023-04-03T00:52:16;51.14;47.30;57.55;;
74470;Laerm;62918;55.706;37.816;2023-04-03T00:52:48;64.22;54.70;71.64;;
74470;Laerm;62918;55.706;37.816;2023-04-03T00:53:23;60.13;49.16;67.79;;
74470;Laerm;62918;55.706;37.816;2023-04-03T00:53:59;49.16;46.03;56.97;;
74470;Laerm;62918;55.706;37.816;2023-04-03T00:54:31;47.79;45.23;50.95;;
74470;Laerm;62918;55.706;37.816;2023-04-03T00:55:04;56.15;46.19;62.34;;
74470;Laerm;62918;55.706;37.816;2023-04-03T00:55:37;48.91;45.92;52.88;;
74470;Laerm;62918;55.706;37.816;2023-04-03T00:56:10;53.12;46.22;58.54;;
74470;Laerm;62918;55.706;37.816;2023-04-03T00:56:43;58.35;53.08;66.79;;
74470;Laerm;62918;55.706;37.816;2023-04-03T00:57:15;59.53;49.69;68.20;;
74470;Laerm;62918;55.706;37.816;2023-04-03T00:57:46;53.78;46.62;61.02;;
74470;Laerm;62918;55.706;37.816;2023-04-03T00:58:19;53.29;47.14;59.12;;
74470;Laerm;62918;55.706;37.816;2023-04-03T00:58:55;49.44;46.01;53.85;;
74470;Laerm;62918;55.706;37.816;2023-04-03T00:59:34;58.32;47.70;65.92;;
74470;Laerm;62918;55.706;37.816;2023-04-03T01:00:08;57.92;51.63;71.18;;
74470;Laerm;62918;55.706;37.816;2023-04-03T01:00:43;62.73;49.82;77.39;;
74470;Laerm;62918;55.706;37.816;2023-04-03T01:01:20;51.03;46.51;56.67;;
74470;Laerm;62918;55.706;37.816;2023-04-03T01:01:54;50.09;46.59;53.55;;
74470;Laerm;62918;55.706;37.816;2023-04-03T01:02:27;53.27;47.79;63.85;;
74470;Laerm;62918;55.706;37.816;2023-04-03T01:02:58;51.82;47.39;58.16;;
74470;Laerm;62918;55.706;37.816;2023-04-03T01:03:29;50.86;47.89;53.99;;
74470;Laerm;62918;55.706;37.816;2023-04-03T01:04:02;54.75;48.15;60.79;;
74470;Laerm;62918;55.706;37.816;2023-04-03T01:04:41;49.67;46.87;53.29;;
74470;Laerm;62918;55.706;37.816;2023-04-03T01:05:13;49.89;46.84;52.69;;
74470;Laerm;62918;55.706;37.816;2023-04-03T01:05:44;50.17;47.67;53.76;;
74470;Laerm;62918;55.706;37.816;2023-04-03T01:06:17;50.25;46.95;57.28;;
74470;Laerm;62918;55.706;37.816;2023-04-03T01:06:50;52.95;47.52;66.20;;
74470;Laerm;62918;55.706;37.816;2023-04-03T01:07:26;52.26;47.63;59.55;;
74470;Laerm;62918;55.706;37.816;2023-04-03T01:07:58;55.75;48.07;63.61;;
74470;Laerm;62918;55.706;37.816;2023-04-03T01:08:29;52.71;48.07;60.08;;
74470;Laerm;62918;55.706;37.816;2023-04-03T01:09:00;50.35;47.69;55.22;;
74470;Laerm;62918;55.706;37.816;2023-04-03T01:09:34;50.47;46.82;53.08;;
74470;Laerm;62918;55.706;37.816;2023-04-03T01:10:09;54.85;47.42;60.11;;
74470;Laerm;62918;55.706;37.816;2023-04-03T01:10:40;53.50;49.27;59.13;;
74470;Laerm;62918;55.706;37.816;2023-04-03T01:11:11;58.59;50.49;67.14;;
74470;Laerm;62918;55.706;37.816;2023-04-03T01:11:42;49.85;46.64;56.02;;
74470;Laerm;62918;55.706;37.816;2023-04-03T01:12:50;59.12;51.15;64.55;;
74470;Laerm;62918;55.706;37.816;2023-04-03T01:13:28;58.89;51.74;66.41;;
74470;Laerm;62918;55.706;37.816;2023-04-03T01:13:59;52.05;47.21;57.34;;
74470;Laerm;62918;55.706;37.816;2023-04-03T01:14:32;53.19;47.19;59.56;;
74470;Laerm;62918;55.706;37.816;2023-04-03T01:15:07;50.70;47.06;54.04;;
74470;Laerm;62918;55.706;37.816;2023-04-03T01:15:38;56.26;48.25;63.74;;
74470;Laerm;62918;55.706;37.816;2023-04-03T01:16:09;58.70;48.96;66.51;;
74470;Laerm;62918;55.706;37.816;2023-04-03T01:16:39;51.20;46.76;55.68;;
74470;Laerm;62918;55.706;37.816;2023-04-03T01:17:59;62.22;50.35;67.76;;
74470;Laerm;62918;55.706;37.816;2023-04-03T01:18:32;50.99;47.77;54.40;;
74470;Laerm;62918;55.706;37.816;2023-04-03T01:19:06;59.33;49.93;68.16;;
74470;Laerm;62918;55.706;37.816;2023-04-03T01:19:41;56.38;48.46;62.75;;
74470;Laerm;62918;55.706;37.816;2023-04-03T01:22:08;57.78;46.37;65.63;;
74470;Laerm;62918;55.706;37.816;2023-04-03T01:23:06;50.94;47.19;63.11;;
74470;Laerm;62918;55.706;37.816;2023-04-03T01:24:37;55.10;51.69;64.02;;
74470;Laerm;62918;55.706;37.816;2023-04-03T01:25:11;57.35;50.88;63.74;;
74470;Laerm;62918;55.706;37.816;2023-04-03T01:25:50;53.12;50.23;59.30;;
74470;Laerm;62918;55.706;37.816;2023-04-03T01:26:21;53.21;49.93;58.46;;
74470;Laerm;62918;55.706;37.816;2023-04-03T01:26:52;50.84;48.36;54.48;;
74470;Laerm;62918;55.706;37.816;2023-04-03T01:27:22;51.55;47.92;56.77;;
74470;Laerm;62918;55.706;37.816;2023-04-03T01:27:53;54.37;50.02;65.58;;
74470;Laerm;62918;55.706;37.816;2023-04-03T01:28:30;54.07;50.44;59.75;;
74470;Laerm;62918;55.706;37.816;2023-04-03T01:29:02;59.28;51.69;64.90;;
74470;Laerm;62918;55.706;37.816;2023-04-03T01:29:32;51.28;47.56;61.69;;
74470;Laerm;62918;55.706;37.816;2023-04-03T01:30:03;50.18;46.16;56.86;;
74470;Laerm;62918;55.706;37.816;2023-04-03T01:32:06;53.95;48.77;59.31;;
74470;Laerm;62918;55.706;37.816;2023-04-03T01:32:36;51.51;47.12;57.52;;
74470;Laerm;62918;55.706;37.816;2023-04-03T01:33:07;49.41;46.32;54.90;;
74470;Laerm;62918;55.706;37.816;2023-04-03T01:33:38;50.96;46.20;56.89;;
74470;Laerm;62918;55.706;37.816;2023-04-03T01:34:09;55.65;46.67;63.39;;
74470;Laerm;62918;55.706;37.816;2023-04-03T01:34:39;51.79;47.16;56.93;;
74470;Laerm;62918;55.706;37.816;2023-04-03T01:35:10;50.59;46.84;55.72;;
74470;Laerm;62918;55.706;37.816;2023-04-03T01:35:40;55.13;50.51;60.50;;
74470;Laerm;62918;55.706;37.816;2023-04-03T01:36:18;52.60;48.28;58.94;;
74470;Laerm;62918;55.706;37.816;2023-04-03T01:36:49;59.47;47.44;65.31;;
74470;Laerm;62918;55.706;37.816;2023-04-03T01:37:23;58.41;50.52;67.31;;
74470;Laerm;62918;55.706;37.816;2023-04-03T01:37:53;54.13;46.91;62.98;;
74470;Laerm;62918;55.706;37.816;2023-04-03T01:38:24;50.74;46.83;55.52;;
74470;Laerm;62918;55.706;37.816;2023-04-03T01:38:57;54.15;47.57;59.59;;
74470;Laerm;62918;55.706;37.816;2023-04-03T01:39:29;52.05;48.52;57.56;;
74470;Laerm;62918;55.706;37.816;2023-04-03T01:40:00;50.53;47.42;54.35;;
74470;Laerm;62918;55.706;37.816;2023-04-03T01:40:30;52.31;47.52;57.22;;
74470;Laerm;62918;55.706;37.816;2023-04-03T01:41:01;49.68;47.41;52.35;;
74470;Laerm;62918;55.706;37.816;2023-04-03T01:41:31;50.17;47.37;57.97;;
74470;Laerm;62918;55.706;37.816;2023-04-03T01:42:02;54.96;48.73;62.16;;
74470;Laerm;62918;55.706;37.816;2023-04-03T01:42:34;50.44;46.92;55.46;;
74470;Laerm;62918;55.706;37.816;2023-04-03T01:43:05;49.70;46.67;52.58;;
74470;Laerm;62918;55.706;37.816;2023-04-03T01:43:35;50.44;47.00;54.05;;
74470;Laerm;62918;55.706;37.816;2023-04-03T01:44:06;50.47;47.32;55.26;;
74470;Laerm;62918;55.706;37.816;2023-04-03T01:44:37;52.55;47.98;63.64;;
74470;Laerm;62918;55.706;37.816;2023-04-03T01:45:08;52.69;46.85;68.00;;
74470;Laerm;62918;55.706;37.816;2023-04-03T01:45:38;52.52;48.39;58.11;;
74470;Laerm;62918;55.706;37.816;2023-04-03T01:46:09;60.58;52.88;66.77;;
74470;Laerm;62918;55.706;37.816;2023-04-03T01:46:40;56.09;50.05;63.54;;
74470;Laerm;62918;55.706;37.816;2023-04-03T01:47:12;59.11;50.86;65.81;;
74470;Laerm;62918;55.706;37.816;2023-04-03T01:47:43;56.49;50.63;64.96;;
74470;Laerm;62918;55.706;37.816;2023-04-03T01:48:13;58.35;50.72;66.66;;
74470;Laerm;62918;55.706;37.816;2023-04-03T01:48:44;57.76;48.49;65.37;;
74470;Laerm;62918;55.706;37.816;2023-04-03T01:49:14;54.86;49.04;61.81;;
74470;Laerm;62918;55.706;37.816;2023-04-03T01:49:45;51.07;48.88;53.72;;
74470;Laerm;62918;55.706;37.816;2023-04-03T01:50:16;53.64;48.12;63.47;;
74470;Laerm;62918;55.706;37.816;2023-04-03T01:50:46;55.71;47.63;63.86;;
74470;Laerm;62918;55.706;37.816;2023-04-03T01:51:17;53.32;47.35;61.50;;
74470;Laerm;62918;55.706;37.816;2023-04-03T01:51:47;56.93;50.05;62.66;;
74470;Laerm;62918;55.706;37.816;2023-04-03T01:52:18;55.04;50.90;61.65;;
74470;Laerm;62918;55.706;37.816;2023-04-03T01:52:49;51.99;49.34;54.75;;
74470;Laerm;62918;55.706;37.816;2023-04-03T01:53:19;59.00;50.65;69.62;;
74470;Laerm;62918;55.706;37.816;2023-04-03T01:53:50;55.57;52.86;60.17;;
74470;Laerm;62918;55.706;37.816;2023-04-03T01:54:21;58.54;55.33;63.28;;
74470;Laerm;62918;55.706;37.816;2023-04-03T01:54:52;62.53;57.23;67.45;;
74470;Laerm;62918;55.706;37.816;2023-04-03T01:55:22;62.84;58.81;67.77;;
74470;Laerm;62918;55.706;37.816;2023-04-03T01:55:53;59.10;51.39;63.05;;
74470;Laerm;62918;55.706;37.816;2023-04-03T01:56:24;54.02;50.28;59.60;;
74470;Laerm;62918;55.706;37.816;2023-04-03T01:56:55;57.63;51.82;61.64;;
74470;Laerm;62918;55.706;37.816;2023-04-03T01:57:25;55.31;52.99;58.54;;
74470;Laerm;62918;55.706;37.816;2023-04-03T01:57:56;55.25;50.61;62.33;;
74470;Laerm;62918;55.706;37.816;2023-04-03T01:58:27;57.14;50.32;64.41;;
74470;Laerm;62918;55.706;37.816;2023-04-03T01:58:57;51.75;49.32;55.50;;
74470;Laerm;62918;55.706;37.816;2023-04-03T01:59:28;54.13;50.61;58.76;;
74470;Laerm;62918;55.706;37.816;2023-04-03T01:59:58;56.94;51.00;63.43;;
74470;Laerm;62918;55.706;37.816;2023-04-03T02:00:29;62.64;57.44;66.68;;
74470;Laerm;62918;55.706;37.816;2023-04-03T02:01:01;57.78;52.14;65.87;;
74470;Laerm;62918;55.706;37.816;2023-04-03T02:01:31;56.58;52.19;61.13;;
74470;Laerm;62918;55.706;37.816;2023-04-03T02:02:02;59.77;50.70;67.69;;
74470;Laerm;62918;55.706;37.816;2023-04-03T02:02:33;57.30;53.65;61.78;;
74470;Laerm;62918;55.706;37.816;2023-04-03T02:03:04;61.78;52.01;71.98;;
74470;Laerm;62918;55.706;37.816;2023-04-03T02:03:34;62.78;52.21;69.66;;
74470;Laerm;62918;55.706;37.816;2023-04-03T02:04:05;58.68;51.07;64.52;;
74470;Laerm;62918;55.706;37.816;2023-04-03T02:04:36;57.87;51.06;64.77;;
74470;Laerm;62918;55.706;37.816;2023-04-03T02:05:07;56.27;51.25;62.96;;
74470;Laerm;62918;55.706;37.816;2023-04-03T02:05:38;59.49;50.33;66.12;;
74470;Laerm;62918;55.706;37.816;2023-04-03T02:06:08;54.67;51.06;58.67;;
74470;Laerm;62918;55.706;37.816;2023-04-03T02:06:39;58.99;53.87;64.16;;
74470;Laerm;62918;55.706;37.816;2023-04-03T02:07:09;61.85;54.73;70.87;;
74470;Laerm;62918;55.706;37.816;2023-04-03T02:07:40;61.99;52.62;71.46;;
74470;Laerm;62918;55.706;37.816;2023-04-03T02:08:11;55.57;52.17;59.52;;
74470;Laerm;62918;55.706;37.816;2023-04-03T02:08:41;57.57;52.00;66.62;;
74470;Laerm;62918;55.706;37.816;2023-04-03T02:09:12;61.52;53.89;66.70;;
74470;Laerm;62918;55.706;37.816;2023-04-03T02:09:42;61.50;53.78;67.83;;
74470;Laerm;62918;55.706;37.816;2023-04-03T02:10:13;57.36;53.23;64.32;;
74470;Laerm;62918;55.706;37.816;2023-04-03T02:10:47;54.62;50.66;59.54;;
74470;Laerm;62918;55.706;37.816;2023-04-03T02:11:18;54.00;50.08;58.30;;
74470;Laerm;62918;55.706;37.816;2023-04-03T02:11:48;60.43;51.51;66.80;;
74470;Laerm;62918;55.706;37.816;2023-04-03T02:12:19;53.72;50.67;68.19;;
74470;Laerm;62918;55.706;37.816;2023-04-03T02:12:50;53.81;49.93;57.71;;
74470;Laerm;62918;55.706;37.816;2023-04-03T02:13:21;54.34;49.91;59.24;;
74470;Laerm;62918;55.706;37.816;2023-04-03T02:13:51;58.12;50.15;66.55;;
74470;Laerm;62918;55.706;37.816;2023-04-03T02:14:22;59.13;50.55;64.24;;
74470;Laerm;62918;55.706;37.816;2023-04-03T02:14:53;60.13;54.10;64.43;;
74470;Laerm;62918;55.706;37.816;2023-04-03T02:15:24;54.46;51.68;58.13;;
74470;Laerm;62918;55.706;37.816;2023-04-03T02:15:55;58.41;54.15;62.65;;
74470;Laerm;62918;55.706;37.816;2023-04-03T02:16:26;58.57;52.69;64.30;;
74470;Laerm;62918;55.706;37.816;2023-04-03T02:16:57;56.97;52.47;62.41;;
74470;Laerm;62918;55.706;37.816;2023-04-03T02:17:27;59.27;54.16;63.08;;
74470;Laerm;62918;55.706;37.816;2023-04-03T02:17:58;59.66;52.70;64.16;;
74470;Laerm;62918;55.706;37.816;2023-04-03T02:18:28;56.16;52.24;59.92;;
74470;Laerm;62918;55.706;37.816;2023-04-03T02:18:59;60.02;54.42;65.45;;
74470;Laerm;62918;55.706;37.816;2023-04-03T02:19:29;63.70;54.87;67.70;;
74470;Laerm;62918;55.706;37.816;2023-04-03T02:20:00;56.76;51.32;62.01;;
74470;Laerm;62918;55.706;37.816;2023-04-03T02:20:31;56.26;50.58;60.44;;
74470;Laerm;62918;55.706;37.816;2023-04-03T02:21:01;55.55;51.14;61.87;;
74470;Laerm;62918;55.706;37.816;2023-04-03T02:21:32;54.52;50.47;60.57;;
74470;Laerm;62918;55.706;37.816;2023-04-03T02:22:04;56.76;50.29;61.51;;
74470;Laerm;62918;55.706;37.816;2023-04-03T02:22:35;60.70;53.07;73.02;;
74470;Laerm;62918;55.706;37.816;2023-04-03T02:23:05;62.93;51.50;73.96;;
74470;Laerm;62918;55.706;37.816;2023-04-03T02:23:36;57.88;52.42;63.18;;
74470;Laerm;62918;55.706;37.816;2023-04-03T02:24:07;53.95;50.31;57.99;;
74470;Laerm;62918;55.706;37.816;2023-04-03T02:24:38;53.01;48.79;56.53;;
74470;Laerm;62918;55.706;37.816;2023-04-03T02:25:10;53.91;48.99;60.43;;
74470;Laerm;62918;55.706;37.816;2023-04-03T02:25:41;54.66;51.14;58.02;;
74470;Laerm;62918;55.706;37.816;2023-04-03T02:26:13;55.68;52.04;59.41;;
74470;Laerm;62918;55.706;37.816;2023-04-03T02:26:44;58.12;52.91;64.21;;
74470;Laerm;62918;55.706;37.816;2023-04-03T02:27:16;58.94;53.47;63.10;;
74470;Laerm;62918;55.706;37.816;2023-04-03T02:27:49;58.01;52.61;67.86;;
74470;Laerm;62918;55.706;37.816;2023-04-03T02:28:20;57.85;53.65;62.43;;
74470;Laerm;62918;55.706;37.816;2023-04-03T02:28:51;63.15;53.15;70.89;;
74470;Laerm;62918;55.706;37.816;2023-04-03T02:29:21;59.49;52.21;68.53;;
74470;Laerm;62918;55.706;37.816;2023-04-03T02:29:52;55.35;51.86;59.20;;
74470;Laerm;62918;55.706;37.816;2023-04-03T02:30:23;54.79;50.10;63.68;;
74470;Laerm;62918;55.706;37.816;2023-04-03T02:30:53;53.85;50.43;58.14;;
74470;Laerm;62918;55.706;37.816;2023-04-03T02:31:24;54.59;50.80;57.66;;
74470;Laerm;62918;55.706;37.816;2023-04-03T02:31:54;59.60;50.25;65.96;;
74470;Laerm;62918;55.706;37.816;2023-04-03T02:32:25;57.65;50.16;63.59;;
74470;Laerm;62918;55.706;37.816;2023-04-03T02:32:56;52.44;49.59;54.89;;
74470;Laerm;62918;55.706;37.816;2023-04-03T02:33:26;53.09;50.01;57.33;;
74470;Laerm;62918;55.706;37.816;2023-04-03T02:33:57;59.26;51.91;66.12;;
74470;Laerm;62918;55.706;37.816;2023-04-03T02:34:27;53.78;49.44;59.44;;
74470;Laerm;62918;55.706;37.816;2023-04-03T02:34:58;58.02;49.40;66.28;;
74470;Laerm;62918;55.706;37.816;2023-04-03T02:35:29;55.93;50.32;65.93;;
74470;Laerm;62918;55.706;37.816;2023-04-03T02:36:00;59.41;51.16;69.29;;
74470;Laerm;62918;55.706;37.816;2023-04-03T02:36:30;62.06;54.87;70.68;;
74470;Laerm;62918;55.706;37.816;2023-04-03T02:37:01;62.37;53.99;69.38;;
74470;Laerm;62918;55.706;37.816;2023-04-03T02:37:32;56.60;50.93;61.85;;
74470;Laerm;62918;55.706;37.816;2023-04-03T02:38:02;60.73;53.57;67.33;;
74470;Laerm;62918;55.706;37.816;2023-04-03T02:38:33;58.09;53.04;63.13;;
74470;Laerm;62918;55.706;37.816;2023-04-03T02:39:04;58.30;51.61;62.87;;
74470;Laerm;62918;55.706;37.816;2023-04-03T02:39:36;59.49;56.00;63.48;;
74470;Laerm;62918;55.706;37.816;2023-04-03T02:40:08;60.72;54.52;65.41;;
74470;Laerm;62918;55.706;37.816;2023-04-03T02:40:39;60.23;54.10;69.24;;
74470;Laerm;62918;55.706;37.816;2023-04-03T02:41:11;56.20;49.84;61.26;;
74470;Laerm;62918;55.706;37.816;2023-04-03T02:41:42;58.62;49.73;65.10;;
74470;Laerm;62918;55.706;37.816;2023-04-03T02:42:13;59.98;50.44;67.26;;
74470;Laerm;62918;55.706;37.816;2023-04-03T02:42:43;58.99;51.97;65.48;;
74470;Laerm;62918;55.706;37.816;2023-04-03T02:43:15;62.36;55.76;68.76;;
74470;Laerm;62918;55.706;37.816;2023-04-03T02:43:45;57.53;51.97;64.18;;
74470;Laerm;62918;55.706;37.816;2023-04-03T02:44:16;64.51;57.20;72.69;;
74470;Laerm;62918;55.706;37.816;2023-04-03T02:44:47;63.25;59.33;66.50;;
74470;Laerm;62918;55.706;37.816;2023-04-03T02:45:17;62.14;55.94;66.77;;
74470;Laerm;62918;55.706;37.816;2023-04-03T02:45:48;59.77;55.70;64.10;;
74470;Laerm;62918;55.706;37.816;2023-04-03T02:46:18;57.99;53.74;61.74;;
74470;Laerm;62918;55.706;37.816;2023-04-03T02:46:49;58.24;52.37;67.05;;
74470;Laerm;62918;55.706;37.816;2023-04-03T02:47:20;56.50;52.47;61.92;;
74470;Laerm;62918;55.706;37.816;2023-04-03T02:47:51;62.12;52.73;71.96;;
74470;Laerm;62918;55.706;37.816;2023-04-03T02:48:22;64.49;58.49;72.41;;
74470;Laerm;62918;55.706;37.816;2023-04-03T02:48:53;64.16;58.95;68.11;;
74470;Laerm;62918;55.706;37.816;2023-04-03T02:49:24;61.73;55.70;67.32;;
74470;Laerm;62918;55.706;37.816;2023-04-03T02:49:54;59.45;54.54;65.47;;
74470;Laerm;62918;55.706;37.816;2023-04-03T02:50:25;59.47;54.05;63.90;;
74470;Laerm;62918;55.706;37.816;2023-04-03T02:50:56;59.30;55.60;63.43;;
74470;Laerm;62918;55.706;37.816;2023-04-03T02:51:26;58.21;53.99;62.49;;
74470;Laerm;62918;55.706;37.816;2023-04-03T02:51:57;58.62;54.45;63.34;;
74470;Laerm;62918;55.706;37.816;2023-04-03T02:52:28;58.28;53.71;63.56;;
74470;Laerm;62918;55.706;37.816;2023-04-03T02:52:59;56.49;51.87;60.87;;
74470;Laerm;62918;55.706;37.816;2023-04-03T02:53:29;59.55;51.93;67.89;;
74470;Laerm;62918;55.706;37.816;2023-04-03T02:54:00;59.89;54.34;68.03;;
74470;Laerm;62918;55.706;37.816;2023-04-03T02:54:31;63.86;55.73;69.84;;
74470;Laerm;62918;55.706;37.816;2023-04-03T02:55:01;60.95;55.35;66.46;;
74470;Laerm;62918;55.706;37.816;2023-04-03T02:55:33;61.38;56.50;66.40;;
74470;Laerm;62918;55.706;37.816;2023-04-03T02:56:04;57.67;52.97;61.89;;
74470;Laerm;62918;55.706;37.816;2023-04-03T02:56:35;61.73;55.97;66.98;;
74470;Laerm;62918;55.706;37.816;2023-04-03T02:57:06;59.95;54.49;68.90;;
74470;Laerm;62918;55.706;37.816;2023-04-03T02:57:38;60.42;54.91;67.81;;
74470;Laerm;62918;55.706;37.816;2023-04-03T02:58:09;60.64;56.55;69.45;;
74470;Laerm;62918;55.706;37.816;2023-04-03T02:58:40;65.13;58.20;68.95;;
74470;Laerm;62918;55.706;37.816;2023-04-03T02:59:10;62.78;55.26;69.32;;
74470;Laerm;62918;55.706;37.816;2023-04-03T02:59:41;60.45;54.54;66.77;;
74470;Laerm;62918;55.706;37.816;2023-04-03T03:00:12;59.88;54.08;66.16;;
74470;Laerm;62918;55.706;37.816;2023-04-03T03:00:43;59.88;54.71;66.72;;
74470;Laerm;62918;55.706;37.816;2023-04-03T03:01:14;61.33;55.54;65.98;;
74470;Laerm;62918;55.706;37.816;2023-04-03T03:01:44;56.60;53.35;59.75;;
74470;Laerm;62918;55.706;37.816;2023-04-03T03:02:15;57.80;52.83;62.40;;